createdAt,value
2019-01-24T00:00:05.496Z,15.3
2019-01-24T00:01:07.009Z,15.3
2019-01-24T00:02:08.545Z,15.1
2019-01-24T00:03:10.348Z,15.1
2019-01-24T00:04:16.708Z,15
2019-01-24T00:05:21.364Z,14.9
2019-01-24T00:06:22.904Z,14.9
2019-01-24T00:07:24.452Z,14.8
2019-01-24T00:08:26.094Z,14.6
2019-01-24T00:09:27.509Z,14.7
2019-01-24T00:10:29.361Z,14.6
2019-01-24T00:11:30.822Z,14.5
2019-01-24T00:12:33.393Z,14.5
2019-01-24T00:13:34.839Z,14.5
2019-01-24T00:14:38.578Z,14.6
2019-01-24T00:15:40.079Z,14.6
2019-01-24T00:16:42.391Z,14.6
2019-01-24T00:17:43.865Z,14.5
2019-01-24T00:18:46.867Z,14.5
2019-01-24T00:19:48.489Z,14.5
2019-01-24T00:20:49.987Z,14.5
2019-01-24T00:21:51.603Z,14.4
2019-01-24T00:22:53.095Z,14.3
2019-01-24T00:23:54.560Z,14.3
2019-01-24T00:24:56.006Z,14.2
2019-01-24T00:25:57.543Z,14.6
2019-01-24T00:26:59.084Z,14.5
2019-01-24T00:28:00.591Z,14.5
2019-01-24T00:29:02.074Z,14.5
2019-01-24T00:30:03.579Z,14.9
2019-01-24T00:31:05.053Z,15.1
2019-01-24T00:32:06.604Z,15.2
2019-01-24T00:33:08.150Z,15.3
2019-01-24T00:34:09.583Z,15.4
2019-01-24T00:35:11.019Z,15.6
2019-01-24T00:36:12.595Z,15.7
2019-01-24T00:37:14.068Z,15.6
2019-01-24T00:38:15.523Z,15.6
2019-01-24T00:39:18.488Z,15.5
2019-01-24T00:40:19.964Z,15.5
2019-01-24T00:41:21.607Z,15.4
2019-01-24T00:42:23.166Z,15.5
2019-01-24T00:43:24.591Z,15.5
2019-01-24T00:44:26.050Z,15.5
2019-01-24T00:45:30.444Z,15.7
2019-01-24T00:46:34.351Z,15.8
2019-01-24T00:47:35.752Z,15.6
2019-01-24T00:48:37.209Z,15.5
2019-01-24T00:49:38.660Z,15.6
2019-01-24T00:50:40.176Z,15.6
2019-01-24T00:51:41.745Z,15.7
2019-01-24T00:52:43.292Z,15.8
2019-01-24T00:53:44.811Z,15.9
2019-01-24T00:54:46.276Z,16
2019-01-24T00:55:47.708Z,16
2019-01-24T00:56:49.254Z,15.9
2019-01-24T00:57:50.695Z,16
2019-01-24T00:58:52.238Z,16
2019-01-24T00:59:53.784Z,15.9
2019-01-24T01:00:55.195Z,16
2019-01-24T01:01:56.968Z,16.1
2019-01-24T01:02:58.516Z,16.1
2019-01-24T01:04:00.163Z,16.1
2019-01-24T01:05:01.693Z,16.1
2019-01-24T01:06:03.140Z,16.2
2019-01-24T01:07:04.692Z,16.2
2019-01-24T01:08:06.135Z,16.1
2019-01-24T01:09:07.564Z,16.2
2019-01-24T01:10:09.004Z,16.2
2019-01-24T01:11:10.440Z,16.2
2019-01-24T01:12:12.001Z,16.3
2019-01-24T01:13:13.639Z,16.2
2019-01-24T01:14:15.171Z,16.2
2019-01-24T01:15:16.615Z,16.1
2019-01-24T01:16:18.124Z,16.1
2019-01-24T01:17:19.704Z,16.1
2019-01-24T01:18:21.242Z,16.1
2019-01-24T01:19:22.688Z,16
2019-01-24T01:20:24.235Z,16
2019-01-24T01:21:25.874Z,15.9
2019-01-24T01:22:27.521Z,15.8
2019-01-24T01:23:28.939Z,15.6
2019-01-24T01:24:30.398Z,15.6
2019-01-24T01:25:31.841Z,15.5
2019-01-24T01:26:33.475Z,15.4
2019-01-24T01:27:35.023Z,15.3
2019-01-24T01:28:36.878Z,15.3
2019-01-24T01:29:38.415Z,15.1
2019-01-24T01:30:40.066Z,15
2019-01-24T01:31:41.505Z,15
2019-01-24T01:32:43.049Z,15
2019-01-24T01:33:44.595Z,14.9
2019-01-24T01:34:46.131Z,14.9
2019-01-24T01:35:47.677Z,14.9
2019-01-24T01:36:49.224Z,14.9
2019-01-24T01:37:51.170Z,14.9
2019-01-24T01:38:52.607Z,15
2019-01-24T01:39:54.021Z,15.1
2019-01-24T01:40:55.493Z,15.2
2019-01-24T01:41:56.925Z,15.3
2019-01-24T01:42:58.476Z,15.1
2019-01-24T01:43:59.905Z,15.1
2019-01-24T01:45:01.765Z,15
2019-01-24T01:46:03.199Z,15
2019-01-24T01:47:04.641Z,15.1
2019-01-24T01:48:06.185Z,15
2019-01-24T01:49:07.637Z,14.8
2019-01-24T01:50:09.161Z,14.8
2019-01-24T01:51:10.613Z,14.8
2019-01-24T01:52:12.053Z,14.8
2019-01-24T01:53:13.597Z,14.8
2019-01-24T01:54:15.035Z,14.8
2019-01-24T01:55:16.481Z,14.7
2019-01-24T01:56:18.036Z,14.7
2019-01-24T01:57:19.659Z,14.7
2019-01-24T01:58:21.070Z,14.6
2019-01-24T01:59:22.553Z,14.6
2019-01-24T02:00:23.993Z,14.6
2019-01-24T02:01:25.423Z,14.5
2019-01-24T02:02:26.867Z,14.4
2019-01-24T02:03:28.518Z,14.4
2019-01-24T02:04:30.069Z,14.5
2019-01-24T02:05:31.597Z,14.4
2019-01-24T02:06:33.041Z,14.3
2019-01-24T02:07:34.595Z,14.4
2019-01-24T02:08:36.222Z,14.6
2019-01-24T02:09:37.773Z,14.7
2019-01-24T02:10:39.274Z,15
2019-01-24T02:11:40.752Z,15
2019-01-24T02:12:42.295Z,15.1
2019-01-24T02:13:43.753Z,15.2
2019-01-24T02:14:45.397Z,15.2
2019-01-24T02:15:46.827Z,15.1
2019-01-24T02:16:48.363Z,15
2019-01-24T02:17:49.806Z,15.1
2019-01-24T02:18:51.343Z,15.2
2019-01-24T02:19:52.885Z,15.3
2019-01-24T02:20:54.401Z,15.3
2019-01-24T02:21:55.875Z,15.3
2019-01-24T02:22:57.411Z,15.2
2019-01-24T02:23:59.014Z,15.3
2019-01-24T02:25:00.407Z,15.1
2019-01-24T02:26:01.947Z,15.3
2019-01-24T02:27:03.349Z,15.3
2019-01-24T02:28:04.778Z,15.3
2019-01-24T02:29:06.263Z,15.4
2019-01-24T02:30:07.693Z,15.5
2019-01-24T02:31:09.140Z,15.5
2019-01-24T02:32:10.540Z,15.5
2019-01-24T02:33:12.036Z,15.5
2019-01-24T02:34:13.577Z,15.5
2019-01-24T02:35:15.096Z,15.4
2019-01-24T02:36:16.547Z,15.4
2019-01-24T02:37:18.090Z,15.4
2019-01-24T02:38:19.486Z,15.5
2019-01-24T02:39:21.381Z,15.7
2019-01-24T02:40:22.826Z,15.7
2019-01-24T02:41:25.490Z,15.7
2019-01-24T02:42:26.930Z,15.8
2019-01-24T02:43:30.731Z,15.8
2019-01-24T02:44:32.262Z,15.7
2019-01-24T02:45:33.685Z,15.7
2019-01-24T02:46:35.148Z,15.8
2019-01-24T02:47:36.696Z,15.7
2019-01-24T02:48:38.100Z,15.8
2019-01-24T02:49:39.670Z,16
2019-01-24T02:50:41.186Z,15.9
2019-01-24T02:51:42.870Z,15.8
2019-01-24T02:52:44.402Z,15.8
2019-01-24T02:53:46.020Z,15.9
2019-01-24T02:54:47.589Z,16
2019-01-24T02:55:49.001Z,16
2019-01-24T02:56:50.475Z,16
2019-01-24T02:57:52.012Z,15.9
2019-01-24T02:58:54.487Z,15.9
2019-01-24T02:59:56.134Z,15.9
2019-01-24T03:00:57.668Z,15.9
2019-01-24T03:01:59.321Z,15.9
2019-01-24T03:03:00.874Z,15.8
2019-01-24T03:04:02.400Z,15.6
2019-01-24T03:05:03.937Z,15.6
2019-01-24T03:06:05.388Z,15.5
2019-01-24T03:07:06.933Z,15.4
2019-01-24T03:08:08.576Z,15.2
2019-01-24T03:09:10.014Z,15.3
2019-01-24T03:10:11.559Z,15.3
2019-01-24T03:11:13.099Z,15.2
2019-01-24T03:12:14.638Z,15.1
2019-01-24T03:13:16.037Z,15
2019-01-24T03:14:17.501Z,14.9
2019-01-24T03:15:19.068Z,15
2019-01-24T03:16:20.610Z,14.8
2019-01-24T03:17:22.049Z,14.8
2019-01-24T03:18:23.495Z,14.8
2019-01-24T03:19:25.035Z,14.8
2019-01-24T03:20:26.469Z,14.7
2019-01-24T03:21:28.122Z,14.5
2019-01-24T03:22:31.653Z,14.5
2019-01-24T03:23:33.184Z,14.5
2019-01-24T03:24:34.893Z,14.5
2019-01-24T03:25:36.437Z,14.6
2019-01-24T03:26:37.987Z,14.7
2019-01-24T03:27:39.549Z,14.8
2019-01-24T03:28:41.179Z,14.9
2019-01-24T03:29:42.812Z,14.8
2019-01-24T03:30:46.423Z,14.8
2019-01-24T03:31:48.071Z,14.7
2019-01-24T03:32:49.598Z,14.7
2019-01-24T03:33:53.563Z,14.6
2019-01-24T03:34:55.143Z,14.5
2019-01-24T03:35:56.801Z,14.5
2019-01-24T03:36:58.333Z,14.5
2019-01-24T03:37:59.775Z,14.4
2019-01-24T03:39:01.187Z,14.3
2019-01-24T03:40:02.749Z,14.6
2019-01-24T03:41:04.393Z,14.8
2019-01-24T03:42:06.142Z,14.9
2019-01-24T03:43:07.585Z,14.9
2019-01-24T03:44:10.579Z,15
2019-01-24T03:45:12.201Z,15
2019-01-24T03:46:13.740Z,14.9
2019-01-24T03:47:15.185Z,14.9
2019-01-24T03:48:16.727Z,14.9
2019-01-24T03:49:18.249Z,14.8
2019-01-24T03:50:19.704Z,14.9
2019-01-24T03:51:21.251Z,15
2019-01-24T03:52:22.791Z,15.1
2019-01-24T03:53:24.221Z,15.1
2019-01-24T03:54:25.677Z,15.2
2019-01-24T03:55:27.119Z,15.2
2019-01-24T03:56:28.655Z,15.1
2019-01-24T03:57:30.088Z,15
2019-01-24T03:58:31.537Z,15
2019-01-24T03:59:32.978Z,15.1
2019-01-24T04:00:34.427Z,15.2
2019-01-24T04:01:35.969Z,15.3
2019-01-24T04:02:37.514Z,15.4
2019-01-24T04:03:39.169Z,15.3
2019-01-24T04:04:40.701Z,15.3
2019-01-24T04:05:42.135Z,15.2
2019-01-24T04:06:43.683Z,15.3
2019-01-24T04:07:45.122Z,15.3
2019-01-24T04:08:46.555Z,15.3
2019-01-24T04:09:47.988Z,15.4
2019-01-24T04:10:49.415Z,15.4
2019-01-24T04:11:50.929Z,15.4
2019-01-24T04:12:52.417Z,15.4
2019-01-24T04:13:53.870Z,15.5
2019-01-24T04:14:55.509Z,15.5
2019-01-24T04:15:56.947Z,15.6
2019-01-24T04:16:58.403Z,15.6
2019-01-24T04:17:59.828Z,15.6
2019-01-24T04:19:01.257Z,15.6
2019-01-24T04:20:02.703Z,15.5
2019-01-24T04:21:04.120Z,15.6
2019-01-24T04:22:05.600Z,15.5
2019-01-24T04:23:07.050Z,15.5
2019-01-24T04:24:11.838Z,15.6
2019-01-24T04:25:13.296Z,15.7
2019-01-24T04:26:14.878Z,15.6
2019-01-24T04:27:16.590Z,15.8
2019-01-24T04:28:17.991Z,15.7
2019-01-24T04:29:19.456Z,15.7
2019-01-24T04:30:20.909Z,15.8
2019-01-24T04:31:22.358Z,15.7
2019-01-24T04:32:23.901Z,15.7
2019-01-24T04:33:25.433Z,15.8
2019-01-24T04:34:26.974Z,15.9
2019-01-24T04:35:29.646Z,15.8
2019-01-24T04:36:31.054Z,15.8
2019-01-24T04:37:32.628Z,15.7
2019-01-24T04:38:34.168Z,15.6
2019-01-24T04:39:35.706Z,15.6
2019-01-24T04:40:37.166Z,15.6
2019-01-24T04:41:38.696Z,15.5
2019-01-24T04:42:40.542Z,15.3
2019-01-24T04:43:41.980Z,15.2
2019-01-24T04:44:43.422Z,15.1
2019-01-24T04:45:44.972Z,15.2
2019-01-24T04:46:52.082Z,15.1
2019-01-24T04:47:53.677Z,15.1
2019-01-24T04:48:57.506Z,15.1
2019-01-24T04:50:00.189Z,15.1
2019-01-24T04:51:01.667Z,15.1
2019-01-24T04:52:03.401Z,15.1
2019-01-24T04:53:04.977Z,15.2
2019-01-24T04:54:06.523Z,15.3
2019-01-24T04:55:08.038Z,15.4
2019-01-24T04:56:09.606Z,15.3
2019-01-24T04:57:11.156Z,15.2
2019-01-24T04:58:12.694Z,15.2
2019-01-24T04:59:14.234Z,15.2
2019-01-24T05:00:15.688Z,15.3
2019-01-24T05:01:17.218Z,15.2
2019-01-24T05:02:18.664Z,15.1
2019-01-24T05:03:20.202Z,15.1
2019-01-24T05:04:21.955Z,15.1
2019-01-24T05:05:27.754Z,15
2019-01-24T05:06:29.754Z,14.9
2019-01-24T05:07:31.293Z,14.9
2019-01-24T05:08:32.758Z,14.9
2019-01-24T05:09:34.281Z,15
2019-01-24T05:10:35.926Z,14.9
2019-01-24T05:11:37.446Z,14.7
2019-01-24T05:12:39.375Z,14.8
2019-01-24T05:13:41.096Z,14.7
2019-01-24T05:14:42.522Z,14.7
2019-01-24T05:15:44.047Z,14.7
2019-01-24T05:16:45.597Z,14.8
2019-01-24T05:17:47.247Z,14.7
2019-01-24T05:18:48.783Z,14.8
2019-01-24T05:19:50.316Z,14.7
2019-01-24T05:20:51.966Z,14.7
2019-01-24T05:21:53.493Z,14.7
2019-01-24T05:22:54.949Z,14.7
2019-01-24T05:23:56.481Z,14.7
2019-01-24T05:24:57.927Z,14.7
2019-01-24T05:25:59.583Z,14.8
2019-01-24T05:27:01.031Z,14.9
2019-01-24T05:28:02.563Z,14.8
2019-01-24T05:29:04.156Z,14.9
2019-01-24T05:30:05.573Z,15.1
2019-01-24T05:31:07.449Z,15.3
2019-01-24T05:32:08.936Z,15.5
2019-01-24T05:33:10.474Z,15.7
2019-01-24T05:34:11.919Z,16
2019-01-24T05:35:13.576Z,16
2019-01-24T05:36:15.105Z,16.2
2019-01-24T05:37:16.583Z,16.2
2019-01-24T05:38:18.086Z,16.3
2019-01-24T05:39:19.729Z,16.4
2019-01-24T05:40:23.305Z,16.4
2019-01-24T05:41:24.765Z,16.4
2019-01-24T05:42:26.313Z,16.5
2019-01-24T05:43:27.745Z,16.6
2019-01-24T05:44:29.276Z,16.8
2019-01-24T05:45:32.842Z,16.8
2019-01-24T05:46:34.317Z,16.8
2019-01-24T05:47:37.306Z,16.8
2019-01-24T05:48:38.733Z,16.9
2019-01-24T05:49:40.289Z,16.9
2019-01-24T05:50:42.227Z,17
2019-01-24T05:51:43.678Z,17
2019-01-24T05:52:47.364Z,17.1
2019-01-24T05:53:48.918Z,17.1
2019-01-24T05:54:50.365Z,17.1
2019-01-24T05:55:51.889Z,17
2019-01-24T05:56:53.440Z,16.9
2019-01-24T05:57:54.886Z,16.8
2019-01-24T05:58:56.317Z,16.6
2019-01-24T05:59:57.951Z,16.5
2019-01-24T06:01:02.370Z,16.5
2019-01-24T06:02:03.922Z,16.5
2019-01-24T06:03:05.357Z,16.4
2019-01-24T06:04:06.878Z,16.1
2019-01-24T06:05:08.456Z,15.9
2019-01-24T06:06:09.997Z,15.8
2019-01-24T06:07:11.624Z,15.8
2019-01-24T06:08:13.060Z,15.8
2019-01-24T06:09:15.278Z,15.6
2019-01-24T06:10:16.733Z,15.6
2019-01-24T06:11:20.570Z,15.5
2019-01-24T06:12:22.011Z,15.6
2019-01-24T06:13:23.650Z,15.5
2019-01-24T06:14:25.091Z,15.6
2019-01-24T06:15:26.735Z,15.6
2019-01-24T06:16:28.273Z,15.7
2019-01-24T06:17:29.712Z,15.9
2019-01-24T06:18:31.123Z,15.9
2019-01-24T06:19:32.700Z,15.8
2019-01-24T06:20:34.239Z,15.8
2019-01-24T06:21:38.251Z,15.6
2019-01-24T06:22:39.677Z,15.7
2019-01-24T06:23:41.131Z,15.6
2019-01-24T06:24:42.773Z,15.7
2019-01-24T06:25:44.317Z,15.6
2019-01-24T06:26:45.756Z,15.4
2019-01-24T06:27:47.296Z,15.6
2019-01-24T06:28:48.702Z,15.6
2019-01-24T06:29:50.092Z,15.7
2019-01-24T06:30:51.622Z,15.6
2019-01-24T06:31:55.206Z,15.5
2019-01-24T06:32:57.840Z,15.3
2019-01-24T06:34:00.334Z,15.4
2019-01-24T06:35:01.796Z,15.5
2019-01-24T06:36:05.638Z,15.4
2019-01-24T06:37:07.334Z,15.4
2019-01-24T06:38:08.846Z,15.6
2019-01-24T06:39:10.420Z,15.5
2019-01-24T06:40:11.930Z,15.6
2019-01-24T06:41:14.122Z,15.5
2019-01-24T06:42:15.560Z,15.5
2019-01-24T06:43:19.697Z,15.3
2019-01-24T06:44:21.183Z,15.4
2019-01-24T06:45:22.622Z,15.3
2019-01-24T06:46:24.184Z,15.4
2019-01-24T06:47:26.750Z,15.4
2019-01-24T06:48:28.186Z,15.3
2019-01-24T06:49:29.620Z,15.5
2019-01-24T06:50:31.085Z,15.4
2019-01-24T06:51:32.718Z,15.4
2019-01-24T06:52:34.258Z,15.3
2019-01-24T06:53:35.698Z,15.3
2019-01-24T06:54:37.137Z,15.4
2019-01-24T06:55:38.766Z,15.4
2019-01-24T06:56:40.329Z,15.4
2019-01-24T06:57:41.870Z,15.3
2019-01-24T06:58:43.626Z,15.2
2019-01-24T06:59:45.124Z,15.3
2019-01-24T07:00:46.610Z,15.2
2019-01-24T07:01:48.347Z,15.3
2019-01-24T07:02:50.068Z,15.3
2019-01-24T07:03:51.646Z,15.3
2019-01-24T07:04:53.220Z,15.3
2019-01-24T07:05:55.394Z,15.3
2019-01-24T07:06:56.981Z,15.3
2019-01-24T07:07:58.526Z,15.2
2019-01-24T07:09:00.452Z,15.3
2019-01-24T07:10:03.836Z,15.3
2019-01-24T07:11:05.234Z,15.3
2019-01-24T07:12:06.849Z,15.1
2019-01-24T07:13:08.286Z,15.1
2019-01-24T07:14:16.122Z,15.1
2019-01-24T07:15:18.635Z,15.2
2019-01-24T07:16:20.081Z,15.2
2019-01-24T07:17:22.178Z,15.1
2019-01-24T07:18:23.708Z,15.2
2019-01-24T07:19:25.229Z,15.2
2019-01-24T07:20:27.178Z,15.2
2019-01-24T07:21:28.601Z,15.2
2019-01-24T07:22:30.033Z,15.2
2019-01-24T07:23:32.457Z,15.2
2019-01-24T07:24:35.102Z,15.2
2019-01-24T07:25:37.867Z,15.1
2019-01-24T07:26:39.721Z,15.2
2019-01-24T07:27:41.253Z,15.2
2019-01-24T07:28:44.128Z,15.2
2019-01-24T07:29:45.577Z,15.2
2019-01-24T07:31:02.463Z,15.5
2019-01-24T07:32:07.975Z,15.6
2019-01-24T07:33:09.547Z,15.8
2019-01-24T07:34:13.475Z,15.8
2019-01-24T07:35:14.988Z,15.8
2019-01-24T07:36:16.531Z,15.9
2019-01-24T07:37:18.073Z,16.2
2019-01-24T07:38:19.626Z,16.3
2019-01-24T07:39:21.279Z,16.4
2019-01-24T07:40:22.820Z,16.7
2019-01-24T07:41:24.347Z,17.1
2019-01-24T07:42:25.893Z,17.4
2019-01-24T07:43:28.673Z,17.4
2019-01-24T07:44:30.475Z,17.4
2019-01-24T07:45:31.915Z,17.3
2019-01-24T07:46:33.497Z,17.2
2019-01-24T07:47:35.405Z,17.1
2019-01-24T07:48:41.414Z,17.2
2019-01-24T07:49:43.929Z,17.2
2019-01-24T07:50:45.405Z,17.3
2019-01-24T07:51:46.847Z,17.3
2019-01-24T07:52:48.239Z,17.3
2019-01-24T07:53:52.509Z,17.2
2019-01-24T07:54:54.039Z,17.2
2019-01-24T07:55:55.579Z,17.1
2019-01-24T07:56:57.091Z,17.2
2019-01-24T07:57:58.562Z,17.1
2019-01-24T07:59:00.006Z,17.2
2019-01-24T08:00:01.547Z,17
2019-01-24T08:01:13.133Z,16.9
2019-01-24T08:02:14.669Z,16.7
2019-01-24T08:03:16.192Z,16.5
2019-01-24T08:04:17.687Z,16.4
2019-01-24T08:05:19.290Z,16.3
2019-01-24T08:06:20.837Z,16.1
2019-01-24T08:07:22.573Z,16
2019-01-24T08:08:24.031Z,15.9
2019-01-24T08:09:25.563Z,15.9
2019-01-24T08:10:27.723Z,15.9
2019-01-24T08:11:30.169Z,15.9
2019-01-24T08:12:31.565Z,15.8
2019-01-24T08:13:33.432Z,15.8
2019-01-24T08:14:34.917Z,15.8
2019-01-24T08:15:36.438Z,15.7
2019-01-24T08:16:41.071Z,15.8
2019-01-24T08:17:42.501Z,15.9
2019-01-24T08:18:44.049Z,16
2019-01-24T08:19:46.733Z,15.9
2019-01-24T08:20:48.138Z,16
2019-01-24T08:21:50.520Z,16
2019-01-24T08:22:51.993Z,16.1
2019-01-24T08:23:54.657Z,16
2019-01-24T08:24:56.278Z,15.8
2019-01-24T08:25:57.717Z,15.8
2019-01-24T08:26:59.133Z,15.8
2019-01-24T08:28:00.849Z,15.8
2019-01-24T08:29:04.527Z,15.8
2019-01-24T08:30:06.150Z,15.7
2019-01-24T08:31:07.585Z,15.6
2019-01-24T08:32:09.031Z,15.6
2019-01-24T08:33:10.469Z,15.5
2019-01-24T08:34:11.913Z,15.5
2019-01-24T08:35:13.403Z,15.4
2019-01-24T08:36:24.307Z,15.4
2019-01-24T08:37:25.771Z,15.3
2019-01-24T08:38:27.312Z,15.4
2019-01-24T08:39:28.833Z,15.3
2019-01-24T08:40:30.379Z,15.2
2019-01-24T08:41:31.819Z,15.2
2019-01-24T08:42:33.261Z,15.2
2019-01-24T08:43:35.322Z,15.1
2019-01-24T08:44:36.754Z,15.1
2019-01-24T08:45:38.198Z,15.2
2019-01-24T08:46:40.883Z,15.2
2019-01-24T08:47:42.600Z,15.1
2019-01-24T08:48:44.028Z,15.1
2019-01-24T08:49:45.436Z,15.1
2019-01-24T08:50:46.949Z,14.9
2019-01-24T08:51:48.360Z,14.9
2019-01-24T08:52:52.268Z,15
2019-01-24T08:53:53.702Z,15
2019-01-24T08:54:55.147Z,15
2019-01-24T08:55:56.593Z,14.9
2019-01-24T08:56:58.138Z,14.9
2019-01-24T08:58:00.624Z,15
2019-01-24T08:59:02.764Z,14.9
2019-01-24T09:00:05.326Z,14.9
2019-01-24T09:01:06.774Z,14.9
2019-01-24T09:02:08.389Z,14.8
2019-01-24T09:03:11.812Z,14.9
2019-01-24T09:04:13.289Z,14.8
2019-01-24T09:05:14.694Z,14.8
2019-01-24T09:06:22.349Z,14.8
2019-01-24T09:07:26.338Z,14.9
2019-01-24T09:08:27.757Z,14.9
2019-01-24T09:09:29.248Z,14.7
2019-01-24T09:10:30.692Z,14.7
2019-01-24T09:11:32.370Z,14.7
2019-01-24T09:12:36.714Z,14.8
2019-01-24T09:13:38.110Z,14.9
2019-01-24T09:14:39.518Z,15.1
2019-01-24T09:15:40.938Z,15.1
2019-01-24T09:16:42.512Z,15.3
2019-01-24T09:17:44.318Z,15.4
2019-01-24T09:18:45.744Z,15.5
2019-01-24T09:19:47.136Z,15.6
2019-01-24T09:20:48.888Z,15.6
2019-01-24T09:21:50.426Z,15.7
2019-01-24T09:22:55.254Z,15.8
2019-01-24T09:24:00.436Z,15.9
2019-01-24T09:25:04.514Z,15.9
2019-01-24T09:26:05.948Z,16
2019-01-24T09:27:08.786Z,16.2
2019-01-24T09:28:14.735Z,16.3
2019-01-24T09:29:16.503Z,16.2
2019-01-24T09:30:18.098Z,16.1
2019-01-24T09:31:23.138Z,16.2
2019-01-24T09:32:24.610Z,16.3
2019-01-24T09:33:26.045Z,16.3
2019-01-24T09:34:28.497Z,16.3
2019-01-24T09:35:32.366Z,16.5
2019-01-24T09:36:34.408Z,16.6
2019-01-24T09:37:38.326Z,16.6
2019-01-24T09:38:40.308Z,16.5
2019-01-24T09:39:43.304Z,16.6
2019-01-24T09:40:45.267Z,16.6
2019-01-24T09:41:46.773Z,16.6
2019-01-24T09:42:48.224Z,16.5
2019-01-24T09:43:49.653Z,16.7
2019-01-24T09:44:51.094Z,16.8
2019-01-24T09:45:52.641Z,16.9
2019-01-24T09:46:54.359Z,16.8
2019-01-24T09:47:58.030Z,16.9
2019-01-24T09:48:59.465Z,16.9
2019-01-24T09:50:00.959Z,16.9
2019-01-24T09:51:02.508Z,16.7
2019-01-24T09:52:04.037Z,16.8
2019-01-24T09:53:05.649Z,16.8
2019-01-24T09:54:09.596Z,16.8
2019-01-24T09:55:11.139Z,16.7
2019-01-24T09:56:12.777Z,16.5
2019-01-24T09:57:14.317Z,16.4
2019-01-24T09:58:16.091Z,16.4
2019-01-24T09:59:17.533Z,16.2
2019-01-24T10:00:19.048Z,16.1
2019-01-24T10:01:20.597Z,16.1
2019-01-24T10:02:24.499Z,16.1
2019-01-24T10:03:25.941Z,16
2019-01-24T10:04:28.500Z,15.9
2019-01-24T10:05:29.936Z,15.9
2019-01-24T10:06:36.156Z,15.8
2019-01-24T10:07:37.809Z,15.9
2019-01-24T10:08:39.281Z,15.9
2019-01-24T10:09:40.819Z,15.9
2019-01-24T10:10:42.349Z,15.9
2019-01-24T10:11:43.815Z,15.8
2019-01-24T10:12:45.341Z,15.8
2019-01-24T10:13:46.903Z,15.8
2019-01-24T10:14:48.303Z,15.9
2019-01-24T10:15:50.331Z,16
2019-01-24T10:16:54.179Z,16.2
2019-01-24T10:17:58.235Z,16.1
2019-01-24T10:18:59.816Z,16
2019-01-24T10:20:03.716Z,15.9
2019-01-24T10:21:05.233Z,15.9
2019-01-24T10:22:06.650Z,16
2019-01-24T10:24:26.470Z,15.9
2019-01-24T10:25:28.129Z,15.9
2019-01-24T10:26:29.783Z,15.9
2019-01-24T10:27:31.514Z,15.9
2019-01-24T10:28:36.957Z,15.9
2019-01-24T10:29:38.515Z,15.9
2019-01-24T10:30:42.847Z,15.7
2019-01-24T10:31:44.751Z,15.5
2019-01-24T10:32:47.185Z,15.5
2019-01-24T10:33:48.681Z,15.5
2019-01-24T10:34:50.127Z,15.6
2019-01-24T10:35:52.565Z,15.6
2019-01-24T10:36:53.991Z,15.6
2019-01-24T10:37:56.307Z,15.7
2019-01-24T10:38:58.013Z,15.6
2019-01-24T10:39:59.514Z,15.6
2019-01-24T10:41:01.136Z,15.6
2019-01-24T10:42:02.550Z,15.6
2019-01-24T10:43:04.258Z,15.6
2019-01-24T10:44:05.833Z,15.6
2019-01-24T10:45:08.406Z,15.6
2019-01-24T10:46:09.830Z,15.6
2019-01-24T10:47:11.226Z,15.6
2019-01-24T10:48:12.629Z,15.6
2019-01-24T10:49:14.038Z,15.6
2019-01-24T10:50:18.164Z,15.6
2019-01-24T10:51:19.808Z,15.6
2019-01-24T10:52:21.217Z,15.6
2019-01-24T10:53:24.282Z,15.6
2019-01-24T10:54:26.066Z,15.5
2019-01-24T10:55:27.714Z,15.5
2019-01-24T10:56:29.152Z,15.5
2019-01-24T10:57:30.565Z,15.6
2019-01-24T10:58:32.032Z,15.6
2019-01-24T10:59:39.633Z,15.6
2019-01-24T11:00:41.166Z,15.6
2019-01-24T11:01:42.700Z,15.7
2019-01-24T11:02:47.391Z,15.7
2019-01-24T11:03:48.858Z,15.6
2019-01-24T11:04:52.142Z,15.7
2019-01-24T11:05:54.670Z,15.6
2019-01-24T11:07:03.356Z,15.6
2019-01-24T11:08:04.950Z,15.7
2019-01-24T11:09:08.653Z,15.8
2019-01-24T11:10:10.233Z,15.7
2019-01-24T11:11:11.764Z,15.7
2019-01-24T11:12:13.186Z,15.7
2019-01-24T11:13:14.631Z,15.8
2019-01-24T11:14:16.272Z,15.8
2019-01-24T11:15:17.798Z,16
2019-01-24T11:16:21.102Z,16.2
2019-01-24T11:17:22.616Z,16.3
2019-01-24T11:18:24.078Z,16.3
2019-01-24T11:19:25.498Z,16.4
2019-01-24T11:20:26.950Z,16.4
2019-01-24T11:21:28.504Z,16.4
2019-01-24T11:22:29.947Z,16.5
2019-01-24T11:23:31.588Z,16.5
2019-01-24T11:24:33.028Z,16.6
2019-01-24T11:25:34.474Z,16.6
2019-01-24T11:26:38.679Z,16.7
2019-01-24T11:27:47.368Z,16.7
2019-01-24T11:28:51.174Z,16.7
2019-01-24T11:29:52.625Z,16.8
2019-01-24T11:30:54.038Z,16.9
2019-01-24T11:31:55.489Z,16.9
2019-01-24T11:32:58.206Z,17
2019-01-24T11:33:59.644Z,17.1
2019-01-24T11:35:01.282Z,17.1
2019-01-24T11:36:02.970Z,17.1
2019-01-24T11:37:04.413Z,17.2
2019-01-24T11:38:07.137Z,17.2
2019-01-24T11:39:08.738Z,17.1
2019-01-24T11:40:20.070Z,17
2019-01-24T11:41:22.825Z,17
2019-01-24T11:42:24.300Z,17
2019-01-24T11:43:25.786Z,17
2019-01-24T11:44:28.414Z,17
2019-01-24T11:45:29.881Z,17
2019-01-24T11:46:34.857Z,17
2019-01-24T11:47:36.330Z,17
2019-01-24T11:48:40.453Z,17
2019-01-24T11:49:44.332Z,17.1
2019-01-24T11:50:45.752Z,17.2
2019-01-24T11:51:47.464Z,17.2
2019-01-24T11:52:49.014Z,17.2
2019-01-24T11:53:53.111Z,17.3
2019-01-24T11:54:57.369Z,17.3
2019-01-24T11:55:59.039Z,17.2
2019-01-24T11:57:00.511Z,17.2
2019-01-24T11:58:04.403Z,17.1
2019-01-24T11:59:06.050Z,17.1
2019-01-24T12:00:07.699Z,17.1
2019-01-24T12:01:11.369Z,17
2019-01-24T12:02:12.827Z,16.9
2019-01-24T12:03:14.644Z,16.9
2019-01-24T12:04:16.122Z,16.9
2019-01-24T12:05:17.655Z,16.8
2019-01-24T12:06:20.612Z,16.7
2019-01-24T12:07:24.439Z,16.6
2019-01-24T12:08:26.763Z,16.6
2019-01-24T12:09:28.405Z,16.6
2019-01-24T12:10:31.834Z,16.6
2019-01-24T12:11:36.807Z,16.6
2019-01-24T12:12:38.600Z,16.5
2019-01-24T12:13:40.376Z,16.5
2019-01-24T12:14:41.883Z,16.6
2019-01-24T12:15:44.577Z,16.7
2019-01-24T12:16:46.463Z,16.8
2019-01-24T12:17:49.229Z,16.8
2019-01-24T12:18:50.679Z,16.8
2019-01-24T12:19:52.093Z,16.7
2019-01-24T12:20:53.809Z,16.8
2019-01-24T12:21:56.351Z,16.8
2019-01-24T12:23:01.495Z,16.9
2019-01-24T12:24:03.047Z,16.9
2019-01-24T12:25:05.494Z,16.8
2019-01-24T12:26:06.895Z,16.8
2019-01-24T12:27:08.332Z,16.8
2019-01-24T12:28:09.775Z,16.7
2019-01-24T12:29:11.251Z,16.7
2019-01-24T12:30:12.954Z,16.6
2019-01-24T12:31:14.407Z,16.6
2019-01-24T12:32:21.457Z,16.5
2019-01-24T12:33:23.070Z,16.4
2019-01-24T12:34:25.029Z,16.5
2019-01-24T12:35:26.459Z,16.5
2019-01-24T12:36:30.401Z,16.5
2019-01-24T12:37:31.996Z,16.5
2019-01-24T12:38:33.550Z,16.5
2019-01-24T12:39:35.555Z,16.4
2019-01-24T12:40:37.456Z,16.4
2019-01-24T12:41:39.256Z,16.4
2019-01-24T12:42:40.748Z,16.4
2019-01-24T12:43:44.581Z,16.4
2019-01-24T12:44:46.440Z,16.4
2019-01-24T12:45:48.410Z,16.4
2019-01-24T12:46:52.079Z,16.4
2019-01-24T12:47:53.492Z,16.4
2019-01-24T12:48:56.890Z,16.4
2019-01-24T12:49:58.374Z,16.4
2019-01-24T12:50:59.843Z,16.5
2019-01-24T12:52:01.259Z,16.5
2019-01-24T12:53:02.664Z,16.4
2019-01-24T12:54:04.109Z,16.4
2019-01-24T12:55:05.578Z,16.4
2019-01-24T12:56:06.985Z,16.4
2019-01-24T12:57:08.389Z,16.4
2019-01-24T12:58:09.814Z,16.4
2019-01-24T12:59:11.238Z,16.3
2019-01-24T13:00:12.807Z,16.2
2019-01-24T13:01:14.213Z,16.2
2019-01-24T13:02:15.976Z,16.3
2019-01-24T13:03:17.647Z,16.2
2019-01-24T13:04:19.472Z,16.2
2019-01-24T13:05:20.971Z,16.2
2019-01-24T13:06:24.874Z,16.3
2019-01-24T13:07:26.552Z,16.3
2019-01-24T13:08:28.239Z,16.4
2019-01-24T13:09:29.631Z,16.4
2019-01-24T13:10:33.308Z,16.4
2019-01-24T13:11:34.730Z,16.3
2019-01-24T13:12:37.385Z,16.3
2019-01-24T13:13:40.544Z,16.3
2019-01-24T13:14:46.504Z,16.3
2019-01-24T13:15:49.994Z,16.2
2019-01-24T13:16:53.276Z,16.3
2019-01-24T13:17:56.471Z,16.2
2019-01-24T13:18:58.621Z,16.2
2019-01-24T13:20:00.158Z,16.1
2019-01-24T13:21:03.597Z,16
2019-01-24T13:22:05.020Z,16.1
2019-01-24T13:23:06.450Z,16.2
2019-01-24T13:24:07.887Z,16.3
2019-01-24T13:25:09.368Z,16.5
2019-01-24T13:26:10.881Z,16.6
2019-01-24T13:27:13.647Z,16.7
2019-01-24T13:28:15.044Z,16.8
2019-01-24T13:29:16.584Z,16.8
2019-01-24T13:30:18.007Z,16.8
2019-01-24T13:31:20.730Z,16.8
2019-01-24T13:32:22.220Z,16.7
2019-01-24T13:33:23.741Z,16.7
2019-01-24T13:34:25.167Z,16.7
2019-01-24T13:35:27.608Z,16.6
2019-01-24T13:36:29.102Z,16.6
2019-01-24T13:37:30.538Z,16.6
2019-01-24T13:38:34.420Z,16.5
2019-01-24T13:39:36.003Z,16.4
2019-01-24T13:40:37.550Z,16.4
2019-01-24T13:41:42.486Z,16.2
2019-01-24T13:42:44.434Z,16.2
2019-01-24T13:43:53.446Z,16.3
2019-01-24T13:44:55.007Z,16.4
2019-01-24T13:45:58.696Z,16.4
2019-01-24T13:47:03.599Z,16.5
2019-01-24T13:48:06.379Z,16.5
2019-01-24T13:49:10.267Z,16.5
2019-01-24T13:50:11.714Z,16.6